sensor_id;sensor_type;location;lat;lon;timestamp;temperature;humidity
37938;DHT22;23763;48.130;11.602;2023-01-15T00:01:02;9.40;99.90
37938;DHT22;23763;48.130;11.602;2023-01-15T00:03:28;9.40;99.90
37938;DHT22;23763;48.130;11.602;2023-01-15T00:05:54;9.30;99.90
37938;DHT22;23763;48.130;11.602;2023-01-15T00:08:19;9.20;99.90
37938;DHT22;23763;48.130;11.602;2023-01-15T00:10:45;9.20;99.90
37938;DHT22;23763;48.130;11.602;2023-01-15T00:13:11;9.10;99.90
37938;DHT22;23763;48.130;11.602;2023-01-15T00:15:36;9.10;99.90
37938;DHT22;23763;48.130;11.602;2023-01-15T00:18:03;9.00;99.90
37938;DHT22;23763;48.130;11.602;2023-01-15T00:20:28;8.90;99.90
37938;DHT22;23763;48.130;11.602;2023-01-15T00:22:54;8.90;99.90
37938;DHT22;23763;48.130;11.602;2023-01-15T00:25:20;8.90;99.90
37938;DHT22;23763;48.130;11.602;2023-01-15T00:28:04;8.80;99.90
37938;DHT22;23763;48.130;11.602;2023-01-15T00:30:30;8.80;99.90
37938;DHT22;23763;48.130;11.602;2023-01-15T00:32:57;8.80;99.90
37938;DHT22;23763;48.130;11.602;2023-01-15T00:35:23;8.80;99.90
37938;DHT22;23763;48.130;11.602;2023-01-15T00:37:50;8.80;99.90
37938;DHT22;23763;48.130;11.602;2023-01-15T00:40:18;8.80;99.90
37938;DHT22;23763;48.130;11.602;2023-01-15T00:42:44;8.90;99.90
37938;DHT22;23763;48.130;11.602;2023-01-15T00:45:11;8.80;99.90
37938;DHT22;23763;48.130;11.602;2023-01-15T00:47:38;8.80;99.90
37938;DHT22;23763;48.130;11.602;2023-01-15T00:50:08;8.70;99.90
37938;DHT22;23763;48.130;11.602;2023-01-15T00:52:34;8.80;99.90
37938;DHT22;23763;48.130;11.602;2023-01-15T00:55:00;8.80;99.90
37938;DHT22;23763;48.130;11.602;2023-01-15T00:57:26;8.80;99.90
37938;DHT22;23763;48.130;11.602;2023-01-15T00:59:52;8.90;99.90
37938;DHT22;23763;48.130;11.602;2023-01-15T01:02:17;8.80;99.90
37938;DHT22;23763;48.130;11.602;2023-01-15T01:04:43;8.80;99.90
37938;DHT22;23763;48.130;11.602;2023-01-15T01:07:09;8.80;99.90
37938;DHT22;23763;48.130;11.602;2023-01-15T01:09:34;8.80;99.90
37938;DHT22;23763;48.130;11.602;2023-01-15T01:12:00;8.80;99.90
37938;DHT22;23763;48.130;11.602;2023-01-15T01:14:27;8.80;99.90
37938;DHT22;23763;48.130;11.602;2023-01-15T01:16:52;8.80;99.90
37938;DHT22;23763;48.130;11.602;2023-01-15T01:19:21;8.90;99.90
37938;DHT22;23763;48.130;11.602;2023-01-15T01:21:48;8.90;99.90
37938;DHT22;23763;48.130;11.602;2023-01-15T01:24:19;8.90;99.90
37938;DHT22;23763;48.130;11.602;2023-01-15T01:26:46;8.90;99.90
37938;DHT22;23763;48.130;11.602;2023-01-15T01:29:17;9.00;99.90
37938;DHT22;23763;48.130;11.602;2023-01-15T01:31:44;8.90;99.90
37938;DHT22;23763;48.130;11.602;2023-01-15T01:34:10;8.90;99.90
37938;DHT22;23763;48.130;11.602;2023-01-15T01:36:38;8.90;99.90
37938;DHT22;23763;48.130;11.602;2023-01-15T01:39:05;8.90;99.90
37938;DHT22;23763;48.130;11.602;2023-01-15T01:41:32;8.80;99.90
37938;DHT22;23763;48.130;11.602;2023-01-15T01:44:00;8.80;99.90
37938;DHT22;23763;48.130;11.602;2023-01-15T01:46:28;8.80;99.90
37938;DHT22;23763;48.130;11.602;2023-01-15T01:49:10;8.80;99.90
37938;DHT22;23763;48.130;11.602;2023-01-15T01:51:49;8.70;99.90
37938;DHT22;23763;48.130;11.602;2023-01-15T01:54:19;8.60;99.90
37938;DHT22;23763;48.130;11.602;2023-01-15T01:56:47;8.60;99.90
37938;DHT22;23763;48.130;11.602;2023-01-15T01:59:14;8.50;99.90
37938;DHT22;23763;48.130;11.602;2023-01-15T02:01:40;8.50;99.90
37938;DHT22;23763;48.130;11.602;2023-01-15T02:04:08;8.40;99.90
37938;DHT22;23763;48.130;11.602;2023-01-15T02:06:36;8.40;99.90
37938;DHT22;23763;48.130;11.602;2023-01-15T02:09:03;8.40;99.90
37938;DHT22;23763;48.130;11.602;2023-01-15T02:11:29;8.40;99.90
37938;DHT22;23763;48.130;11.602;2023-01-15T02:19:48;8.50;99.90
37938;DHT22;23763;48.130;11.602;2023-01-15T02:27:37;8.70;99.90
37938;DHT22;23763;48.130;11.602;2023-01-15T02:30:15;8.60;99.90
37938;DHT22;23763;48.130;11.602;2023-01-15T02:32:48;8.50;99.90
37938;DHT22;23763;48.130;11.602;2023-01-15T02:35:32;8.50;99.90
37938;DHT22;23763;48.130;11.602;2023-01-15T02:38:04;8.60;99.90
37938;DHT22;23763;48.130;11.602;2023-01-15T02:40:30;8.60;99.90
37938;DHT22;23763;48.130;11.602;2023-01-15T02:42:58;8.50;99.90
37938;DHT22;23763;48.130;11.602;2023-01-15T02:45:32;8.70;99.90
37938;DHT22;23763;48.130;11.602;2023-01-15T02:48:12;8.50;99.90
37938;DHT22;23763;48.130;11.602;2023-01-15T02:50:46;8.60;99.90
37938;DHT22;23763;48.130;11.602;2023-01-15T02:53:23;8.60;99.90
37938;DHT22;23763;48.130;11.602;2023-01-15T02:55:51;8.50;99.90
37938;DHT22;23763;48.130;11.602;2023-01-15T02:58:27;8.50;99.90
37938;DHT22;23763;48.130;11.602;2023-01-15T03:00:55;8.50;99.90
37938;DHT22;23763;48.130;11.602;2023-01-15T03:03:35;8.50;99.90
37938;DHT22;23763;48.130;11.602;2023-01-15T03:08:49;8.60;99.90
37938;DHT22;23763;48.130;11.602;2023-01-15T03:11:17;8.50;99.90
37938;DHT22;23763;48.130;11.602;2023-01-15T03:16:28;8.60;99.90
37938;DHT22;23763;48.130;11.602;2023-01-15T03:21:55;8.60;99.90
37938;DHT22;23763;48.130;11.602;2023-01-15T03:27:01;8.70;99.90
37938;DHT22;23763;48.130;11.602;2023-01-15T03:29:33;8.70;99.90
37938;DHT22;23763;48.130;11.602;2023-01-15T03:32:00;8.70;99.90
37938;DHT22;23763;48.130;11.602;2023-01-15T03:34:35;8.70;99.90
37938;DHT22;23763;48.130;11.602;2023-01-15T03:37:01;8.70;99.90
37938;DHT22;23763;48.130;11.602;2023-01-15T03:39:28;8.70;99.90
37938;DHT22;23763;48.130;11.602;2023-01-15T03:42:14;8.70;99.90
37938;DHT22;23763;48.130;11.602;2023-01-15T03:47:41;8.50;99.90
37938;DHT22;23763;48.130;11.602;2023-01-15T03:50:36;8.60;99.90
37938;DHT22;23763;48.130;11.602;2023-01-15T03:53:13;8.60;99.90
37938;DHT22;23763;48.130;11.602;2023-01-15T03:56:07;8.60;99.90
37938;DHT22;23763;48.130;11.602;2023-01-15T03:58:42;8.60;99.90
37938;DHT22;23763;48.130;11.602;2023-01-15T04:01:14;8.60;99.90
37938;DHT22;23763;48.130;11.602;2023-01-15T04:03:41;8.60;99.90
37938;DHT22;23763;48.130;11.602;2023-01-15T04:06:08;8.60;99.90
37938;DHT22;23763;48.130;11.602;2023-01-15T04:08:37;8.60;99.90
37938;DHT22;23763;48.130;11.602;2023-01-15T04:11:04;8.70;99.90
37938;DHT22;23763;48.130;11.602;2023-01-15T04:13:30;8.70;99.90
37938;DHT22;23763;48.130;11.602;2023-01-15T04:15:56;8.70;99.90
37938;DHT22;23763;48.130;11.602;2023-01-15T04:18:22;8.70;99.90
37938;DHT22;23763;48.130;11.602;2023-01-15T04:20:48;8.70;99.90
37938;DHT22;23763;48.130;11.602;2023-01-15T04:23:14;8.70;99.90
37938;DHT22;23763;48.130;11.602;2023-01-15T04:25:39;8.80;99.90
37938;DHT22;23763;48.130;11.602;2023-01-15T04:28:05;8.80;99.90
37938;DHT22;23763;48.130;11.602;2023-01-15T04:30:32;8.90;99.90
37938;DHT22;23763;48.130;11.602;2023-01-15T04:32:58;8.90;99.90
37938;DHT22;23763;48.130;11.602;2023-01-15T04:35:23;8.90;99.90
37938;DHT22;23763;48.130;11.602;2023-01-15T04:37:54;8.90;99.90
37938;DHT22;23763;48.130;11.602;2023-01-15T04:40:20;9.00;99.90
37938;DHT22;23763;48.130;11.602;2023-01-15T04:43:04;9.00;99.90
37938;DHT22;23763;48.130;11.602;2023-01-15T04:45:48;8.90;99.90
37938;DHT22;23763;48.130;11.602;2023-01-15T04:48:14;8.90;99.90
37938;DHT22;23763;48.130;11.602;2023-01-15T04:50:39;9.00;99.90
37938;DHT22;23763;48.130;11.602;2023-01-15T04:53:05;9.00;99.90
37938;DHT22;23763;48.130;11.602;2023-01-15T04:55:31;9.00;99.90
37938;DHT22;23763;48.130;11.602;2023-01-15T04:57:56;8.90;99.90
37938;DHT22;23763;48.130;11.602;2023-01-15T05:00:22;9.00;99.90
37938;DHT22;23763;48.130;11.602;2023-01-15T05:02:48;8.90;99.90
37938;DHT22;23763;48.130;11.602;2023-01-15T05:05:14;8.90;99.90
37938;DHT22;23763;48.130;11.602;2023-01-15T05:07:40;9.00;99.90
37938;DHT22;23763;48.130;11.602;2023-01-15T05:10:06;8.90;99.90
37938;DHT22;23763;48.130;11.602;2023-01-15T05:12:32;9.00;99.90
37938;DHT22;23763;48.130;11.602;2023-01-15T05:14:57;9.00;99.90
37938;DHT22;23763;48.130;11.602;2023-01-15T05:17:23;8.90;99.90
37938;DHT22;23763;48.130;11.602;2023-01-15T05:19:48;8.90;99.90
37938;DHT22;23763;48.130;11.602;2023-01-15T05:22:14;9.00;99.90
37938;DHT22;23763;48.130;11.602;2023-01-15T05:24:39;9.00;99.90
37938;DHT22;23763;48.130;11.602;2023-01-15T05:27:05;9.00;99.90
37938;DHT22;23763;48.130;11.602;2023-01-15T05:29:31;9.00;99.90
37938;DHT22;23763;48.130;11.602;2023-01-15T05:31:56;9.00;99.90
37938;DHT22;23763;48.130;11.602;2023-01-15T05:34:22;9.00;99.90
37938;DHT22;23763;48.130;11.602;2023-01-15T05:36:47;9.00;99.90
37938;DHT22;23763;48.130;11.602;2023-01-15T05:39:13;9.00;99.90
37938;DHT22;23763;48.130;11.602;2023-01-15T05:41:39;8.90;99.90
37938;DHT22;23763;48.130;11.602;2023-01-15T05:44:21;9.00;99.90
37938;DHT22;23763;48.130;11.602;2023-01-15T05:46:48;9.00;99.90
37938;DHT22;23763;48.130;11.602;2023-01-15T05:49:17;9.00;99.90
37938;DHT22;23763;48.130;11.602;2023-01-15T05:51:43;9.10;99.90
37938;DHT22;23763;48.130;11.602;2023-01-15T05:54:15;9.20;99.90
37938;DHT22;23763;48.130;11.602;2023-01-15T05:56:41;9.30;99.90
37938;DHT22;23763;48.130;11.602;2023-01-15T05:59:07;9.40;99.90
37938;DHT22;23763;48.130;11.602;2023-01-15T06:01:34;9.50;99.90
37938;DHT22;23763;48.130;11.602;2023-01-15T06:04:01;9.60;99.90
37938;DHT22;23763;48.130;11.602;2023-01-15T06:06:28;9.70;99.90
37938;DHT22;23763;48.130;11.602;2023-01-15T06:08:54;9.80;99.90
37938;DHT22;23763;48.130;11.602;2023-01-15T06:11:19;9.80;99.90
37938;DHT22;23763;48.130;11.602;2023-01-15T06:13:45;9.90;99.90
37938;DHT22;23763;48.130;11.602;2023-01-15T06:16:11;10.00;99.90
37938;DHT22;23763;48.130;11.602;2023-01-15T06:18:40;10.00;99.90
37938;DHT22;23763;48.130;11.602;2023-01-15T06:21:08;10.10;99.90
37938;DHT22;23763;48.130;11.602;2023-01-15T06:23:34;10.00;99.90
37938;DHT22;23763;48.130;11.602;2023-01-15T06:26:05;10.00;99.90
37938;DHT22;23763;48.130;11.602;2023-01-15T06:28:31;10.00;99.90
37938;DHT22;23763;48.130;11.602;2023-01-15T06:30:57;10.10;99.90
37938;DHT22;23763;48.130;11.602;2023-01-15T06:33:23;10.20;99.90
37938;DHT22;23763;48.130;11.602;2023-01-15T06:35:49;10.30;99.90
37938;DHT22;23763;48.130;11.602;2023-01-15T06:38:15;10.60;99.90
37938;DHT22;23763;48.130;11.602;2023-01-15T06:40:40;10.80;99.90
37938;DHT22;23763;48.130;11.602;2023-01-15T06:43:07;10.90;99.90
37938;DHT22;23763;48.130;11.602;2023-01-15T06:45:51;11.10;99.90
37938;DHT22;23763;48.130;11.602;2023-01-15T06:48:35;11.30;99.90
37938;DHT22;23763;48.130;11.602;2023-01-15T06:51:01;11.30;99.90
37938;DHT22;23763;48.130;11.602;2023-01-15T06:53:27;11.40;99.90
37938;DHT22;23763;48.130;11.602;2023-01-15T06:55:52;11.50;99.90
37938;DHT22;23763;48.130;11.602;2023-01-15T06:58:18;11.50;99.90
37938;DHT22;23763;48.130;11.602;2023-01-15T07:00:46;11.50;99.90
37938;DHT22;23763;48.130;11.602;2023-01-15T07:03:18;11.50;99.90
37938;DHT22;23763;48.130;11.602;2023-01-15T07:05:44;11.50;99.90
37938;DHT22;23763;48.130;11.602;2023-01-15T07:08:10;11.60;99.90
37938;DHT22;23763;48.130;11.602;2023-01-15T07:10:35;11.60;99.90
37938;DHT22;23763;48.130;11.602;2023-01-15T07:13:01;11.60;99.90
37938;DHT22;23763;48.130;11.602;2023-01-15T07:15:26;11.60;99.90
37938;DHT22;23763;48.130;11.602;2023-01-15T07:17:58;11.60;99.90
37938;DHT22;23763;48.130;11.602;2023-01-15T07:20:24;11.60;99.90
37938;DHT22;23763;48.130;11.602;2023-01-15T07:22:51;11.60;99.90
37938;DHT22;23763;48.130;11.602;2023-01-15T07:25:16;11.70;99.90
37938;DHT22;23763;48.130;11.602;2023-01-15T07:27:44;11.70;99.90
37938;DHT22;23763;48.130;11.602;2023-01-15T07:30:35;11.80;99.90
37938;DHT22;23763;48.130;11.602;2023-01-15T07:33:01;11.80;99.90
37938;DHT22;23763;48.130;11.602;2023-01-15T07:35:26;11.80;99.90
37938;DHT22;23763;48.130;11.602;2023-01-15T07:37:52;11.80;99.90
37938;DHT22;23763;48.130;11.602;2023-01-15T07:40:18;11.80;99.90
37938;DHT22;23763;48.130;11.602;2023-01-15T07:42:43;11.80;99.90
37938;DHT22;23763;48.130;11.602;2023-01-15T07:45:28;11.80;99.90
37938;DHT22;23763;48.130;11.602;2023-01-15T07:48:12;11.80;99.90
37938;DHT22;23763;48.130;11.602;2023-01-15T07:50:56;11.80;99.90
37938;DHT22;23763;48.130;11.602;2023-01-15T07:53:22;11.90;99.90
37938;DHT22;23763;48.130;11.602;2023-01-15T07:55:47;11.90;99.90
37938;DHT22;23763;48.130;11.602;2023-01-15T07:58:13;11.90;99.90
37938;DHT22;23763;48.130;11.602;2023-01-15T08:00:39;12.00;99.90
37938;DHT22;23763;48.130;11.602;2023-01-15T08:03:05;12.00;99.90
37938;DHT22;23763;48.130;11.602;2023-01-15T08:05:31;12.10;99.90
37938;DHT22;23763;48.130;11.602;2023-01-15T08:07:59;12.00;99.90
37938;DHT22;23763;48.130;11.602;2023-01-15T08:10:24;12.10;99.90
37938;DHT22;23763;48.130;11.602;2023-01-15T08:12:50;12.10;99.90
37938;DHT22;23763;48.130;11.602;2023-01-15T08:15:38;12.10;99.90
37938;DHT22;23763;48.130;11.602;2023-01-15T08:18:04;12.10;99.90
37938;DHT22;23763;48.130;11.602;2023-01-15T08:20:34;12.20;99.90
37938;DHT22;23763;48.130;11.602;2023-01-15T08:23:00;12.20;99.90
37938;DHT22;23763;48.130;11.602;2023-01-15T08:25:26;12.30;99.90
37938;DHT22;23763;48.130;11.602;2023-01-15T08:27:52;12.30;99.90
37938;DHT22;23763;48.130;11.602;2023-01-15T08:30:23;12.30;99.90
37938;DHT22;23763;48.130;11.602;2023-01-15T08:32:49;12.30;99.90
37938;DHT22;23763;48.130;11.602;2023-01-15T08:35:15;12.30;99.90
37938;DHT22;23763;48.130;11.602;2023-01-15T08:37:41;12.40;99.90
37938;DHT22;23763;48.130;11.602;2023-01-15T08:40:08;12.40;99.90
37938;DHT22;23763;48.130;11.602;2023-01-15T08:42:34;12.40;99.90
37938;DHT22;23763;48.130;11.602;2023-01-15T08:44:59;12.30;99.90
37938;DHT22;23763;48.130;11.602;2023-01-15T08:47:25;12.30;99.90
37938;DHT22;23763;48.130;11.602;2023-01-15T08:49:50;12.40;99.90
37938;DHT22;23763;48.130;11.602;2023-01-15T08:52:16;12.40;99.90
37938;DHT22;23763;48.130;11.602;2023-01-15T08:54:42;12.50;99.90
37938;DHT22;23763;48.130;11.602;2023-01-15T08:57:08;12.50;99.90
37938;DHT22;23763;48.130;11.602;2023-01-15T08:59:36;12.60;99.90
37938;DHT22;23763;48.130;11.602;2023-01-15T09:02:01;12.60;99.90
37938;DHT22;23763;48.130;11.602;2023-01-15T09:04:27;12.70;99.90
37938;DHT22;23763;48.130;11.602;2023-01-15T09:06:53;12.80;99.90
37938;DHT22;23763;48.130;11.602;2023-01-15T09:09:18;12.90;99.90
37938;DHT22;23763;48.130;11.602;2023-01-15T09:11:44;13.00;99.90
37938;DHT22;23763;48.130;11.602;2023-01-15T09:14:12;12.90;99.90
37938;DHT22;23763;48.130;11.602;2023-01-15T09:16:39;13.00;99.90
37938;DHT22;23763;48.130;11.602;2023-01-15T09:19:05;12.90;99.90
37938;DHT22;23763;48.130;11.602;2023-01-15T09:21:31;13.00;99.90
37938;DHT22;23763;48.130;11.602;2023-01-15T09:23:57;12.90;99.90
37938;DHT22;23763;48.130;11.602;2023-01-15T09:26:35;12.90;99.90
37938;DHT22;23763;48.130;11.602;2023-01-15T09:29:09;13.00;99.90
37938;DHT22;23763;48.130;11.602;2023-01-15T09:31:38;13.10;99.90
37938;DHT22;23763;48.130;11.602;2023-01-15T09:34:03;13.20;99.90
37938;DHT22;23763;48.130;11.602;2023-01-15T09:36:34;13.20;99.90
37938;DHT22;23763;48.130;11.602;2023-01-15T09:39:00;13.40;99.90
37938;DHT22;23763;48.130;11.602;2023-01-15T09:41:53;13.40;99.90
37938;DHT22;23763;48.130;11.602;2023-01-15T09:47:12;13.50;99.90
37938;DHT22;23763;48.130;11.602;2023-01-15T09:49:45;13.60;99.90
37938;DHT22;23763;48.130;11.602;2023-01-15T09:52:23;13.80;99.90
37938;DHT22;23763;48.130;11.602;2023-01-15T09:55:10;13.90;99.90
